Time;durP1;ratioP1;P1;durP2;ratioP2;P2;SDS_P1;SDS_P2;PMS_P1;PMS_P2;Temp;Humidity;BMP_temperature;BMP_pressure;BME280_temperature;BME280_humidity;BME280_pressure;Samples;Min_cycle;Max_cycle;Signal;HPM_P1;HPM_P2
2024/01/13 00:00:11;;;;;;;;;;;;;;;23.27;27.87;102778.22;5036888;28;19960;-71
2024/01/13 00:02:36;;;;;;;;;;;;;;;23.26;28.01;102776.53;5039305;28;19913;-71
2024/01/13 00:05:01;;;;;;;;;;;;;;;23.24;27.91;102780.41;5038234;28;19928;-71
2024/01/13 00:07:28;;;;;;;;;;;;;;;23.24;27.60;102773.13;5042902;28;20146;-71
2024/01/13 00:09:53;;;;;;;;;;;;;;;23.21;27.65;102770.69;5041446;28;19917;-70
2024/01/13 00:12:18;;;;;;;;;;;;;;;23.17;27.76;102767.44;5046293;28;20377;-70
2024/01/13 00:14:44;;;;;;;;;;;;;;;23.13;28.13;102766.03;5037074;28;19934;-70
2024/01/13 00:17:09;;;;;;;;;;;;;;;23.08;27.91;102762.06;5031820;28;19914;-70
2024/01/13 00:19:34;;;;;;;;;;;;;;;23.00;28.23;102757.41;5036570;28;20393;-70
2024/01/13 00:21:59;;;;;;;;;;;;;;;22.95;28.07;102755.13;5045336;28;19936;-70
2024/01/13 00:24:24;;;;;;;;;;;;;;;22.92;28.37;102755.44;5040264;28;19914;-70
2024/01/13 00:26:50;;;;;;;;;;;;;;;22.88;28.43;102750.44;5034518;28;20031;-70
2024/01/13 00:29:15;;;;;;;;;;;;;;;22.86;28.18;102749.75;5033735;28;19917;-70
2024/01/13 00:31:40;;;;;;;;;;;;;;;22.79;28.46;102751.34;5042097;28;19913;-70
2024/01/13 00:34:05;;;;;;;;;;;;;;;22.76;28.29;102741.63;5049693;28;19952;-70
2024/01/13 00:36:30;;;;;;;;;;;;;;;22.73;28.56;102738.38;5045556;28;20571;-70
2024/01/13 00:38:55;;;;;;;;;;;;;;;22.70;28.38;102736.81;5039906;28;19920;-69
2024/01/13 00:41:21;;;;;;;;;;;;;;;22.67;28.87;102734.41;5038922;28;20289;-70
2024/01/13 00:43:47;;;;;;;;;;;;;;;22.64;28.74;102734.69;5039394;28;19947;-70
2024/01/13 00:46:12;;;;;;;;;;;;;;;22.61;28.77;102718.75;5038591;28;19917;-70
2024/01/13 00:48:37;;;;;;;;;;;;;;;22.59;28.66;102724.28;5037746;28;19939;-70
2024/01/13 00:51:02;;;;;;;;;;;;;;;22.55;28.92;102720.16;5036737;28;19952;-70
2024/01/13 00:53:28;;;;;;;;;;;;;;;22.53;28.81;102714.06;5038770;28;20385;-70
2024/01/13 00:55:53;;;;;;;;;;;;;;;22.51;28.99;102718.75;5040656;28;19924;-70
2024/01/13 00:58:18;;;;;;;;;;;;;;;22.49;28.74;102706.38;5036718;28;19917;-70
2024/01/13 01:00:43;;;;;;;;;;;;;;;22.46;28.71;102712.94;5035783;28;19913;-70
2024/01/13 01:03:09;;;;;;;;;;;;;;;22.43;29.06;102711.41;5033550;28;19913;-70
2024/01/13 01:05:34;;;;;;;;;;;;;;;22.40;28.92;102705.41;5042368;28;20370;-70
2024/01/13 01:07:59;;;;;;;;;;;;;;;22.36;28.97;102702.13;5036779;28;20415;-70
2024/01/13 01:10:24;;;;;;;;;;;;;;;22.34;29.21;102706.84;5034756;28;19917;-70
2024/01/13 01:12:49;;;;;;;;;;;;;;;22.32;29.05;102705.28;5040157;28;19920;-70
2024/01/13 01:15:15;;;;;;;;;;;;;;;22.28;29.28;102712.84;5037966;28;19917;-70
2024/01/13 01:17:40;;;;;;;;;;;;;;;22.26;29.33;102705.88;5037761;28;19945;-70
2024/01/13 01:20:05;;;;;;;;;;;;;;;22.24;29.09;102706.03;5043112;28;19914;-70
2024/01/13 01:22:30;;;;;;;;;;;;;;;22.20;29.10;102689.19;5040322;28;19918;-70
2024/01/13 01:24:56;;;;;;;;;;;;;;;22.17;29.40;102684.09;5036263;28;19927;-70
2024/01/13 01:27:21;;;;;;;;;;;;;;;22.16;29.20;102685.06;5028110;28;19917;-70
2024/01/13 01:29:47;;;;;;;;;;;;;;;22.13;29.33;102688.09;5054114;28;19924;-70
2024/01/13 01:32:12;;;;;;;;;;;;;;;22.11;29.25;102687.34;5043061;28;19920;-70
2024/01/13 01:34:37;;;;;;;;;;;;;;;22.08;29.36;102674.09;5032964;28;19918;-70
2024/01/13 01:37:02;;;;;;;;;;;;;;;22.07;29.36;102669.69;5032634;28;19917;-70
2024/01/13 01:39:27;;;;;;;;;;;;;;;22.06;29.51;102672.53;5033337;28;19918;-70
2024/01/13 01:41:53;;;;;;;;;;;;;;;22.03;29.49;102670.97;5040062;28;20602;-70
2024/01/13 01:44:18;;;;;;;;;;;;;;;22.03;29.63;102670.97;5049986;28;19909;-70
2024/01/13 01:46:43;;;;;;;;;;;;;;;22.01;29.61;102664.88;5049961;28;19928;-70
2024/01/13 01:49:08;;;;;;;;;;;;;;;22.01;29.27;102664.88;5038773;28;19937;-71
2024/01/13 01:51:33;;;;;;;;;;;;;;;22.01;29.60;102661.31;5039185;28;19956;-70
2024/01/13 01:53:58;;;;;;;;;;;;;;;22.00;29.40;102662.28;5039506;28;20374;-70
2024/01/13 01:56:26;;;;;;;;;;;;;;;22.00;29.29;102660.44;5042399;28;19913;-70
2024/01/13 01:58:52;;;;;;;;;;;;;;;22.00;29.53;102652.28;5039141;28;19945;-70
2024/01/13 02:01:17;;;;;;;;;;;;;;;22.00;29.35;102646.88;5035418;28;19923;-71
2024/01/13 02:03:43;;;;;;;;;;;;;;;22.01;29.51;102651.31;5039378;28;19917;-70
2024/01/13 02:06:08;;;;;;;;;;;;;;;22.02;29.52;102644.03;5041347;28;19948;-70
2024/01/13 02:08:33;;;;;;;;;;;;;;;22.02;29.23;102641.34;5039777;28;19925;-70
2024/01/13 02:10:58;;;;;;;;;;;;;;;22.03;29.30;102641.19;5038311;28;20767;-70
2024/01/13 02:13:24;;;;;;;;;;;;;;;22.05;29.38;102635.63;5043395;28;19969;-70
2024/01/13 02:15:49;;;;;;;;;;;;;;;22.05;29.13;102633.78;5048624;28;19942;-71
2024/01/13 02:18:14;;;;;;;;;;;;;;;22.07;29.51;102636.31;5050649;28;19917;-70
2024/01/13 02:20:39;;;;;;;;;;;;;;;22.07;29.13;102633.63;5044416;28;19924;-70
2024/01/13 02:23:04;;;;;;;;;;;;;;;22.07;29.24;102629.03;5036016;28;19953;-70
2024/01/13 02:25:30;;;;;;;;;;;;;;;22.09;29.29;102612.63;5035101;28;19924;-70
2024/01/13 02:27:55;;;;;;;;;;;;;;;22.09;29.24;102613.53;5041805;28;19913;-70
2024/01/13 02:30:20;;;;;;;;;;;;;;;22.11;29.05;102605.22;5043017;28;20543;-70
2024/01/13 02:32:45;;;;;;;;;;;;;;;22.12;29.22;102605.09;5046718;28;19921;-70
2024/01/13 02:35:10;;;;;;;;;;;;;;;22.13;29.08;102598.72;5043113;28;20342;-70
2024/01/13 02:37:35;;;;;;;;;;;;;;;22.14;29.27;102596.84;5040022;28;19924;-70
2024/01/13 02:40:01;;;;;;;;;;;;;;;22.14;29.23;102595.00;5036913;28;19917;-70
2024/01/13 02:42:26;;;;;;;;;;;;;;;22.14;29.30;102592.28;5043921;28;19914;-70
2024/01/13 02:44:51;;;;;;;;;;;;;;;22.16;29.22;102589.41;5047960;28;19989;-70
2024/01/13 02:47:16;;;;;;;;;;;;;;;22.19;29.15;102583.69;5049058;28;19917;-70
2024/01/13 02:49:41;;;;;;;;;;;;;;;22.19;29.02;102576.41;5036123;28;19944;-70
2024/01/13 02:52:06;;;;;;;;;;;;;;;22.21;28.94;102577.09;5032795;28;19968;-70
2024/01/13 02:54:32;;;;;;;;;;;;;;;22.22;29.18;102572.56;5037609;28;19917;-70
2024/01/13 02:56:58;;;;;;;;;;;;;;;22.22;28.87;102564.44;5039282;28;19963;-70
2024/01/13 02:59:23;;;;;;;;;;;;;;;22.21;29.12;102560.84;5037301;28;19948;-69
2024/01/13 03:01:48;;;;;;;;;;;;;;;22.24;29.01;102558.84;5037181;28;19909;-70
2024/01/13 03:04:13;;;;;;;;;;;;;;;22.24;28.94;102553.44;5039080;28;20009;-70
2024/01/13 03:06:39;;;;;;;;;;;;;;;22.26;29.11;102548.72;5037520;28;20297;-70
2024/01/13 03:09:05;;;;;;;;;;;;;;;22.26;29.10;102544.19;5046126;28;19913;-69
2024/01/13 03:11:30;;;;;;;;;;;;;;;22.27;28.88;102540.44;5041458;28;19918;-69
2024/01/13 03:13:55;;;;;;;;;;;;;;;22.29;28.89;102534.88;5037497;28;19936;-70
2024/01/13 03:16:21;;;;;;;;;;;;;;;22.30;28.83;102529.31;5038757;28;19913;-70
2024/01/13 03:18:46;;;;;;;;;;;;;;;22.33;28.96;102520.00;5038399;28;20005;-70
2024/01/13 03:21:11;;;;;;;;;;;;;;;22.32;28.64;102511.03;5036847;28;19913;-70
2024/01/13 03:23:36;;;;;;;;;;;;;;;22.32;28.97;102502.91;5035724;28;19949;-70
2024/01/13 03:26:02;;;;;;;;;;;;;;;22.35;28.68;102508.03;5041809;28;20036;-70
2024/01/13 03:28:27;;;;;;;;;;;;;;;22.38;29.00;102505.00;5033095;28;19913;-69
2024/01/13 03:30:52;;;;;;;;;;;;;;;22.40;28.70;102500.28;5037246;28;19913;-70
2024/01/13 03:33:17;;;;;;;;;;;;;;;22.41;28.77;102507.41;5043098;28;19916;-70
2024/01/13 03:35:42;;;;;;;;;;;;;;;22.42;28.63;102505.53;5039567;28;20657;-70
2024/01/13 03:38:07;;;;;;;;;;;;;;;22.43;28.88;102502.69;5041020;28;20406;-70
2024/01/13 03:40:33;;;;;;;;;;;;;;;22.43;28.57;102500.00;5040919;28;19953;-70
2024/01/13 03:42:58;;;;;;;;;;;;;;;22.46;28.58;102498.81;5044809;28;19981;-70
2024/01/13 03:45:23;;;;;;;;;;;;;;;22.46;28.51;102494.22;5037979;28;19947;-70
2024/01/13 03:47:48;;;;;;;;;;;;;;;22.50;28.82;102491.22;5033011;28;20458;-70
2024/01/13 03:50:14;;;;;;;;;;;;;;;22.50;28.85;102478.53;5039887;28;19917;-70
2024/01/13 03:52:39;;;;;;;;;;;;;;;22.53;28.84;102482.78;5047298;28;20527;-70
2024/01/13 03:55:04;;;;;;;;;;;;;;;22.55;28.54;102478.06;5046330;28;19992;-70
2024/01/13 03:57:29;;;;;;;;;;;;;;;22.57;28.34;102481.47;5043652;28;20402;-70
2024/01/13 03:59:55;;;;;;;;;;;;;;;22.58;28.52;102478.59;5034351;28;19920;-70
2024/01/13 04:02:20;;;;;;;;;;;;;;;22.60;28.71;102481.16;5039184;28;20365;-70
2024/01/13 04:04:45;;;;;;;;;;;;;;;22.61;28.69;102488.28;5034622;28;20004;-70
2024/01/13 04:07:10;;;;;;;;;;;;;;;22.63;28.45;102480.84;5041419;28;19944;-70
2024/01/13 04:09:37;;;;;;;;;;;;;;;22.65;28.32;102481.56;5038414;28;20292;-70
2024/01/13 04:12:03;;;;;;;;;;;;;;;22.69;28.57;102493.81;5036697;28;19913;-70
2024/01/13 04:14:28;;;;;;;;;;;;;;;22.70;28.20;102485.50;5041839;28;20056;-70
2024/01/13 04:16:53;;;;;;;;;;;;;;;22.74;28.18;102485.19;5039215;28;19917;-70
2024/01/13 04:19:18;;;;;;;;;;;;;;;22.78;28.10;102492.88;5034186;28;19929;-70
2024/01/13 04:21:43;;;;;;;;;;;;;;;22.79;28.06;102478.28;5034965;28;19913;-71
2024/01/13 04:24:09;;;;;;;;;;;;;;;22.84;28.08;102473.25;5036916;28;20395;-70
2024/01/13 04:26:34;;;;;;;;;;;;;;;22.87;28.04;102474.78;5045449;28;20720;-70
2024/01/13 04:29:00;;;;;;;;;;;;;;;22.89;27.88;102476.31;5034983;28;19949;-70
2024/01/13 04:31:25;;;;;;;;;;;;;;;22.90;27.88;102472.66;5037138;28;19917;-70
2024/01/13 04:33:50;;;;;;;;;;;;;;;22.93;27.93;102482.31;5037525;28;19917;-70
2024/01/13 04:36:15;;;;;;;;;;;;;;;22.92;28.07;102481.47;5033041;28;19950;-70
2024/01/13 04:38:40;;;;;;;;;;;;;;;22.90;28.03;102479.94;5036478;28;19913;-70
2024/01/13 04:41:05;;;;;;;;;;;;;;;22.89;28.06;102470.91;5041221;28;19921;-70
2024/01/13 04:43:31;;;;;;;;;;;;;;;22.92;28.19;102472.50;5039716;28;19923;-70
2024/01/13 04:45:56;;;;;;;;;;;;;;;22.91;27.94;102460.78;5032388;28;19921;-71
2024/01/13 04:48:22;;;;;;;;;;;;;;;22.95;27.98;102461.34;5041701;28;19917;-70
2024/01/13 04:50:47;;;;;;;;;;;;;;;22.92;28.02;102459.78;5056016;28;19935;-70
2024/01/13 04:53:12;;;;;;;;;;;;;;;22.93;27.96;102461.47;5038179;28;19920;-70
2024/01/13 04:55:37;;;;;;;;;;;;;;;22.98;28.10;102455.59;5033256;28;19968;-70
2024/01/13 04:58:02;;;;;;;;;;;;;;;22.99;27.98;102454.59;5031313;28;20100;-70
2024/01/13 05:00:28;;;;;;;;;;;;;;;23.01;27.85;102449.00;5035455;28;20320;-70
2024/01/13 05:02:53;;;;;;;;;;;;;;;23.03;28.15;102450.53;5038457;28;19916;-70
2024/01/13 05:05:18;;;;;;;;;;;;;;;23.02;28.07;102451.53;5042541;28;19924;-70
2024/01/13 05:07:43;;;;;;;;;;;;;;;23.03;27.92;102457.84;5044745;28;20000;-70
2024/01/13 05:10:09;;;;;;;;;;;;;;;23.04;27.78;102448.69;5032674;28;19913;-70
2024/01/13 05:12:34;;;;;;;;;;;;;;;23.06;27.79;102454.78;5036828;28;19917;-70
2024/01/13 05:14:59;;;;;;;;;;;;;;;23.07;27.84;102457.34;5035367;28;19913;-71
2024/01/13 05:17:24;;;;;;;;;;;;;;;23.07;28.04;102451.94;5046482;28;19939;-70
2024/01/13 05:19:49;;;;;;;;;;;;;;;23.11;27.62;102460.59;5036129;28;19913;-70
2024/01/13 05:22:15;;;;;;;;;;;;;;;23.10;28.00;102450.75;5036118;28;19919;-70
2024/01/13 05:24:40;;;;;;;;;;;;;;;23.10;27.60;102432.59;5042738;28;19917;-70
2024/01/13 05:27:05;;;;;;;;;;;;;;;23.07;27.96;102416.66;5041774;28;19988;-70
2024/01/13 05:29:30;;;;;;;;;;;;;;;23.06;28.08;102416.81;5034593;28;19913;-70
2024/01/13 05:31:55;;;;;;;;;;;;;;;23.03;28.10;102403.59;5041380;28;19917;-70
2024/01/13 05:34:21;;;;;;;;;;;;;;;23.01;28.03;102392.88;5045950;28;19914;-70
2024/01/13 05:36:47;;;;;;;;;;;;;;;23.03;28.03;102390.88;5055818;28;19967;-70
2024/01/13 05:39:12;;;;;;;;;;;;;;;23.03;28.04;102387.31;5047016;28;19913;-70
2024/01/13 05:41:38;;;;;;;;;;;;;;;23.03;27.98;102388.16;5042911;28;19913;-70
2024/01/13 05:44:03;;;;;;;;;;;;;;;23.04;27.82;102381.72;5036702;28;19918;-70
2024/01/13 05:46:28;;;;;;;;;;;;;;;23.05;28.03;102377.13;5036285;28;19917;-70
2024/01/13 05:48:54;;;;;;;;;;;;;;;23.05;27.98;102390.69;5039285;28;19922;-70
2024/01/13 05:51:19;;;;;;;;;;;;;;;23.03;27.91;102412.56;5043843;28;19960;-70
2024/01/13 05:53:44;;;;;;;;;;;;;;;23.05;28.03;102428.66;5045687;28;19913;-71
2024/01/13 05:56:09;;;;;;;;;;;;;;;23.05;27.68;102426.81;5037520;28;20337;-70
2024/01/13 05:58:35;;;;;;;;;;;;;;;23.07;27.87;102432.09;5038194;28;19924;-70
2024/01/13 06:01:00;;;;;;;;;;;;;;;23.07;27.63;102429.38;5042031;28;19913;-70
2024/01/13 06:03:25;;;;;;;;;;;;;;;23.08;27.58;102420.22;5044222;28;19918;-70
2024/01/13 06:05:50;;;;;;;;;;;;;;;23.09;27.59;102411.91;5044366;28;19925;-70
2024/01/13 06:08:16;;;;;;;;;;;;;;;23.07;27.78;102411.25;5039012;28;19917;-70
2024/01/13 06:10:41;;;;;;;;;;;;;;;23.04;27.68;102400.69;5036366;28;19913;-70
2024/01/13 06:13:07;;;;;;;;;;;;;;;23.04;27.90;102397.97;5034225;28;19917;-71
2024/01/13 06:15:32;;;;;;;;;;;;;;;23.06;27.71;102384.25;5040775;28;20400;-70
2024/01/13 06:17:57;;;;;;;;;;;;;;;23.02;27.84;102361.16;5041225;28;19914;-70
2024/01/13 06:20:23;;;;;;;;;;;;;;;23.00;27.79;102350.50;5036705;28;19917;-70
2024/01/13 06:22:48;;;;;;;;;;;;;;;22.98;27.98;102344.38;5041559;28;19935;-71
2024/01/13 06:25:13;;;;;;;;;;;;;;;22.94;27.99;102321.31;5042835;28;19928;-70
2024/01/13 06:27:38;;;;;;;;;;;;;;;22.91;27.93;102314.34;5035368;28;19918;-70
2024/01/13 06:30:04;;;;;;;;;;;;;;;22.92;27.81;102318.75;5045145;28;19921;-70
2024/01/13 06:32:29;;;;;;;;;;;;;;;22.90;27.87;102314.50;5044432;28;19925;-70
2024/01/13 06:34:54;;;;;;;;;;;;;;;22.86;28.13;102305.81;5039807;28;20722;-70
2024/01/13 06:37:19;;;;;;;;;;;;;;;22.83;28.20;102302.56;5042445;28;19917;-70
2024/01/13 06:39:44;;;;;;;;;;;;;;;22.80;28.40;102305.59;5041457;28;19920;-70
2024/01/13 06:42:10;;;;;;;;;;;;;;;22.75;28.37;102311.50;5041855;28;19923;-70
2024/01/13 06:44:35;;;;;;;;;;;;;;;22.70;28.42;102314.69;5044074;28;19967;-71
2024/01/13 06:47:01;;;;;;;;;;;;;;;22.67;28.70;102308.72;5050946;28;19995;-70
2024/01/13 06:49:26;;;;;;;;;;;;;;;22.64;28.61;102296.34;5044490;28;19921;-70
2024/01/13 06:51:52;;;;;;;;;;;;;;;22.61;28.78;102288.53;5045977;28;19963;-69
2024/01/13 06:54:17;;;;;;;;;;;;;;;22.59;28.60;102290.53;5045263;28;19924;-70
2024/01/13 06:56:42;;;;;;;;;;;;;;;22.56;28.64;102301.72;5043187;28;19913;-69
2024/01/13 06:59:07;;;;;;;;;;;;;;;22.54;28.86;102302.88;5048546;28;20012;-69
2024/01/13 07:01:33;;;;;;;;;;;;;;;22.52;28.93;102283.22;5044610;28;19917;-70
2024/01/13 07:03:58;;;;;;;;;;;;;;;22.49;28.93;102272.69;5043494;28;19913;-71
2024/01/13 07:06:23;;;;;;;;;;;;;;;22.46;29.17;102261.16;5043180;28;19929;-70
2024/01/13 07:08:48;;;;;;;;;;;;;;;22.45;28.98;102258.63;5039328;28;19924;-70
2024/01/13 07:11:14;;;;;;;;;;;;;;;22.44;29.30;102251.50;5042577;28;19928;-69
2024/01/13 07:13:42;;;;;;;;;;;;;;;22.43;29.15;102250.66;5046451;28;20261;-70
2024/01/13 07:16:08;;;;;;;;;;;;;;;22.42;29.14;102245.38;5046621;28;19924;-69
2024/01/13 07:18:33;;;;;;;;;;;;;;;22.39;29.25;102245.72;5042535;28;19917;-70
2024/01/13 07:20:58;;;;;;;;;;;;;;;22.38;29.26;102244.84;5046338;28;19951;-70
2024/01/13 07:23:23;;;;;;;;;;;;;;;22.36;29.46;102248.72;5042045;28;19988;-68
2024/01/13 07:25:49;;;;;;;;;;;;;;;22.33;29.48;102241.75;5042203;28;19918;-70
2024/01/13 07:28:14;;;;;;;;;;;;;;;22.32;29.88;102248.19;5043621;28;19921;-71
2024/01/13 07:30:39;;;;;;;;;;;;;;;22.30;29.49;102250.22;5039508;28;19956;-70
2024/01/13 07:33:04;;;;;;;;;;;;;;;22.28;29.52;102249.53;5042327;28;19944;-70
2024/01/13 07:35:29;;;;;;;;;;;;;;;22.27;29.66;102261.38;5041611;28;19917;-70
2024/01/13 07:37:55;;;;;;;;;;;;;;;22.25;29.81;102249.81;5044015;28;19921;-70
2024/01/13 07:40:20;;;;;;;;;;;;;;;22.20;30.08;102244.03;5035417;28;19920;-71
2024/01/13 07:42:45;;;;;;;;;;;;;;;22.20;29.80;102244.88;5036855;28;19944;-71
2024/01/13 07:45:10;;;;;;;;;;;;;;;22.17;30.11;102234.38;5045701;28;19917;-70
2024/01/13 07:47:35;;;;;;;;;;;;;;;22.14;29.96;102244.69;5036556;28;19921;-71
2024/01/13 07:50:01;;;;;;;;;;;;;;;22.11;30.09;102243.09;5041668;28;19977;-71
2024/01/13 07:52:28;;;;;;;;;;;;;;;22.10;30.20;102245.97;5044526;28;19977;-71
2024/01/13 07:54:53;;;;;;;;;;;;;;;22.06;30.36;102240.03;5042093;28;19940;-70
2024/01/13 07:57:19;;;;;;;;;;;;;;;22.03;30.30;102237.63;5038351;28;19912;-70
2024/01/13 07:59:44;;;;;;;;;;;;;;;22.01;30.44;102231.53;5041823;28;19916;-70
2024/01/13 08:02:09;;;;;;;;;;;;;;;21.99;30.48;102251.63;5043268;28;20270;-70
2024/01/13 08:04:34;;;;;;;;;;;;;;;21.99;30.50;102248.91;5033327;28;20005;-71
2024/01/13 08:07:00;;;;;;;;;;;;;;;21.96;30.22;102245.53;5036737;28;20336;-71
2024/01/13 08:09:25;;;;;;;;;;;;;;;21.95;30.58;102248.38;5049257;28;19913;-70
2024/01/13 08:11:51;;;;;;;;;;;;;;;21.92;30.37;102241.44;5044716;28;19923;-71
2024/01/13 08:14:16;;;;;;;;;;;;;;;21.90;30.64;102238.03;5037299;28;20469;-70
2024/01/13 08:16:42;;;;;;;;;;;;;;;21.88;30.77;102240.03;5038573;28;19925;-70
2024/01/13 08:19:09;;;;;;;;;;;;;;;21.84;30.71;102224.28;5023247;28;19917;-70
2024/01/13 08:21:34;;;;;;;;;;;;;;;21.82;30.33;102220.84;5032933;28;20393;-70
2024/01/13 08:23:59;;;;;;;;;;;;;;;21.79;30.43;102221.16;5042601;28;19917;-69
2024/01/13 08:26:25;;;;;;;;;;;;;;;21.77;30.63;102221.31;5039151;28;19917;-68
2024/01/13 08:28:50;;;;;;;;;;;;;;;21.76;30.59;102233.16;5038955;28;19917;-68
2024/01/13 08:31:15;;;;;;;;;;;;;;;21.73;30.39;102244.28;5034747;28;20385;-68
2024/01/13 08:33:40;;;;;;;;;;;;;;;21.72;30.64;102239.91;5036956;28;19951;-68
2024/01/13 08:36:05;;;;;;;;;;;;;;;21.70;30.50;102244.59;5035505;28;19970;-67
2024/01/13 08:38:31;;;;;;;;;;;;;;;21.68;30.59;102241.22;5042733;28;19913;-68
2024/01/13 08:40:56;;;;;;;;;;;;;;;21.65;30.78;102236.94;5030506;28;19956;-67
2024/01/13 08:43:21;;;;;;;;;;;;;;;21.62;30.54;102249.94;5039336;28;19920;-68
2024/01/13 08:45:46;;;;;;;;;;;;;;;21.60;30.78;102246.53;5039132;28;19922;-69
2024/01/13 08:48:11;;;;;;;;;;;;;;;21.58;30.75;102245.81;5034188;28;19927;-69
2024/01/13 08:50:36;;;;;;;;;;;;;;;21.56;30.84;102247.84;5029243;28;19913;-68
2024/01/13 08:53:02;;;;;;;;;;;;;;;21.55;30.86;102246.16;5038774;28;19917;-68
2024/01/13 08:55:27;;;;;;;;;;;;;;;21.52;30.75;102228.34;5040447;28;20374;-69
2024/01/13 08:57:52;;;;;;;;;;;;;;;21.51;30.90;102233.94;5040570;28;19968;-68
2024/01/13 09:00:18;;;;;;;;;;;;;;;21.50;30.53;102224.13;5037346;28;19983;-70
2024/01/13 09:02:43;;;;;;;;;;;;;;;21.47;30.89;102219.88;5034321;28;19913;-70
2024/01/13 09:05:09;;;;;;;;;;;;;;;21.46;30.60;102216.31;5038973;28;19957;-69
2024/01/13 09:07:34;;;;;;;;;;;;;;;21.46;30.88;102212.75;5035499;28;19921;-70
2024/01/13 09:10:00;;;;;;;;;;;;;;;21.44;30.85;102210.19;5038074;28;19912;-69
2024/01/13 09:12:25;;;;;;;;;;;;;;;21.43;31.00;102211.19;5039499;28;20027;-70
2024/01/13 09:14:51;;;;;;;;;;;;;;;21.42;31.04;102214.91;5041944;28;19917;-70
2024/01/13 09:17:16;;;;;;;;;;;;;;;21.40;31.00;102200.66;5036921;28;19936;-68
2024/01/13 09:19:41;;;;;;;;;;;;;;;21.40;31.00;102208.78;5032203;28;20282;-71
2024/01/13 09:22:06;;;;;;;;;;;;;;;21.38;30.87;102205.41;5039634;28;19924;-70
2024/01/13 09:24:31;;;;;;;;;;;;;;;21.37;30.95;102205.56;5034235;28;19921;-71
2024/01/13 09:26:57;;;;;;;;;;;;;;;21.36;30.80;102204.69;5023007;28;19913;-70
2024/01/13 09:29:22;;;;;;;;;;;;;;;21.36;30.90;102198.44;5033866;28;20393;-70
2024/01/13 09:31:48;;;;;;;;;;;;;;;21.34;30.78;102195.88;5029228;28;19981;-70
2024/01/13 09:34:13;;;;;;;;;;;;;;;21.34;30.81;102197.75;5020658;28;19913;-70
2024/01/13 09:36:38;;;;;;;;;;;;;;;21.31;30.86;102193.44;5035784;28;19917;-70
2024/01/13 09:39:10;;;;;;;;;;;;;;;21.31;30.98;102200.72;5032083;28;19917;-70
2024/01/13 09:41:36;;;;;;;;;;;;;;;21.30;30.90;102197.16;5044302;28;19923;-70
2024/01/13 09:44:02;;;;;;;;;;;;;;;21.30;31.06;102199.03;5037725;28;20297;-70
2024/01/13 09:46:28;;;;;;;;;;;;;;;21.29;31.00;102187.34;5033139;28;19924;-69
2024/01/13 09:48:54;;;;;;;;;;;;;;;21.27;30.82;102189.34;5036992;28;19921;-69
2024/01/13 09:51:19;;;;;;;;;;;;;;;21.27;31.20;102189.34;5041460;28;20456;-70
2024/01/13 09:53:54;;;;;;;;;;;;;;;21.25;31.09;102180.56;5041837;28;19917;-70
2024/01/13 09:56:25;;;;;;;;;;;;;;;21.24;30.97;102184.28;5031086;28;20275;-70
2024/01/13 09:58:50;;;;;;;;;;;;;;;21.24;30.74;102184.28;5033235;28;19914;-70
2024/01/13 10:01:15;;;;;;;;;;;;;;;21.22;30.81;102179.00;5033357;28;19925;-69
2024/01/13 10:03:40;;;;;;;;;;;;;;;21.21;30.73;102180.00;5040315;28;19913;-69
2024/01/13 10:06:07;;;;;;;;;;;;;;;21.20;30.80;102175.59;5041673;28;19932;-69
2024/01/13 10:08:32;;;;;;;;;;;;;;;21.19;30.80;102179.28;5044027;28;19924;-69
2024/01/13 10:10:58;;;;;;;;;;;;;;;21.20;31.03;102169.34;5041984;28;20366;-69
2024/01/13 10:13:25;;;;;;;;;;;;;;;21.18;31.15;102169.47;5042208;28;19928;-69
2024/01/13 10:15:50;;;;;;;;;;;;;;;21.17;31.08;102167.78;5037731;28;19924;-70
2024/01/13 10:18:15;;;;;;;;;;;;;;;21.16;30.99;102163.38;5049330;28;19917;-69
2024/01/13 10:20:41;;;;;;;;;;;;;;;21.16;30.86;102162.53;5040071;28;19959;-69
2024/01/13 10:23:06;;;;;;;;;;;;;;;21.14;30.73;102159.97;5036563;28;20020;-69
2024/01/13 10:25:31;;;;;;;;;;;;;;;21.12;30.85;102156.59;5042648;28;19969;-69
2024/01/13 10:27:56;;;;;;;;;;;;;;;21.12;30.98;102162.00;5043379;28;19983;-68
2024/01/13 10:30:21;;;;;;;;;;;;;;;21.12;30.92;102153.88;5038816;28;19923;-69
2024/01/13 10:32:46;;;;;;;;;;;;;;;21.12;31.11;102143.06;5045177;28;19917;-69
2024/01/13 10:35:17;;;;;;;;;;;;;;;21.14;30.84;102142.91;5045074;28;19936;-70
2024/01/13 10:37:42;;;;;;;;;;;;;;;21.13;30.93;102136.63;5045307;28;20027;-69
2024/01/13 10:40:08;;;;;;;;;;;;;;;21.13;30.99;102125.81;5048585;28;19924;-68
2024/01/13 10:42:37;;;;;;;;;;;;;;;21.14;30.91;102121.25;5045534;28;19920;-69
2024/01/13 10:45:04;;;;;;;;;;;;;;;21.15;30.87;102129.25;5035995;28;19920;-68
2024/01/13 10:47:31;;;;;;;;;;;;;;;21.15;30.78;102128.38;5040876;28;19981;-68
2024/01/13 10:49:57;;;;;;;;;;;;;;;21.15;31.05;102142.75;5042571;28;19920;-69
2024/01/13 10:52:32;;;;;;;;;;;;;;;21.15;30.92;102131.94;5044536;28;19917;-71
2024/01/13 10:55:00;;;;;;;;;;;;;;;21.16;30.96;102135.50;5041267;28;20222;-70
2024/01/13 10:57:25;;;;;;;;;;;;;;;21.18;31.45;102133.47;5042436;28;19917;-70
2024/01/13 10:59:53;;;;;;;;;;;;;;;21.19;31.23;102129.75;5036771;28;19921;-71
2024/01/13 11:02:18;;;;;;;;;;;;;;;21.18;31.64;102123.50;5036436;28;19913;-71
2024/01/13 11:04:44;;;;;;;;;;;;;;;21.19;31.64;102111.66;5043735;28;20744;-71
2024/01/13 11:07:09;;;;;;;;;;;;;;;21.21;31.16;102115.09;5040001;28;19981;-70
2024/01/13 11:09:34;;;;;;;;;;;;;;;21.23;31.17;102114.91;5047355;28;20382;-70
2024/01/13 11:12:10;;;;;;;;;;;;;;;21.25;31.33;102112.94;5039329;28;19924;-70
2024/01/13 11:14:37;;;;;;;;;;;;;;;21.25;31.23;102110.22;5040006;28;19921;-70
2024/01/13 11:17:02;;;;;;;;;;;;;;;21.27;31.20;102107.34;5041072;28;20448;-70
2024/01/13 11:19:31;;;;;;;;;;;;;;;21.29;31.06;102100.78;5038226;28;19944;-68
2024/01/13 11:21:56;;;;;;;;;;;;;;;21.29;31.04;102102.66;5038537;28;19925;-70
2024/01/13 11:24:23;;;;;;;;;;;;;;;21.31;31.21;102104.19;5038710;28;19955;-70
2024/01/13 11:26:49;;;;;;;;;;;;;;;21.34;31.20;102098.50;5040783;28;19941;-71
2024/01/13 11:29:15;;;;;;;;;;;;;;;21.36;31.17;102093.75;5045979;28;19966;-71
2024/01/13 11:31:40;;;;;;;;;;;;;;;21.37;31.15;102090.06;5048759;28;19917;-70
2024/01/13 11:34:07;;;;;;;;;;;;;;;21.39;30.91;102088.03;5037593;28;19921;-71
2024/01/13 11:36:32;;;;;;;;;;;;;;;21.40;30.99;102073.50;5035241;28;19920;-70
2024/01/13 11:38:58;;;;;;;;;;;;;;;21.42;30.86;102062.56;5039048;28;19913;-69
2024/01/13 11:41:35;;;;;;;;;;;;;;;21.42;30.84;102066.09;5035083;28;20008;-71
2024/01/13 11:44:00;;;;;;;;;;;;;;;21.42;30.87;102054.44;5041041;28;19920;-71
2024/01/13 11:46:25;;;;;;;;;;;;;;;21.43;31.04;102042.59;5038051;28;19921;-71
2024/01/13 11:48:51;;;;;;;;;;;;;;;21.44;31.06;102042.44;5042539;28;19913;-71
2024/01/13 11:51:18;;;;;;;;;;;;;;;21.45;31.06;102036.03;5039354;28;19932;-70
2024/01/13 11:53:44;;;;;;;;;;;;;;;21.46;30.79;102031.47;5042252;28;20341;-71
2024/01/13 11:56:10;;;;;;;;;;;;;;;21.48;30.81;102039.41;5036420;28;19913;-71
2024/01/13 11:58:38;;;;;;;;;;;;;;;21.48;30.72;102037.56;5037726;28;19920;-71
2024/01/13 12:01:07;;;;;;;;;;;;;;;21.48;30.84;102029.44;5039486;28;19917;-71
2024/01/13 12:03:32;;;;;;;;;;;;;;;21.48;30.90;102028.59;5036618;28;19991;-70
2024/01/13 12:05:58;;;;;;;;;;;;;;;21.48;30.78;102028.59;5043127;28;20392;-70
2024/01/13 12:08:25;;;;;;;;;;;;;;;21.49;30.53;102025.72;5031432;28;20020;-70
2024/01/13 12:10:51;;;;;;;;;;;;;;;21.51;30.53;102026.41;5031282;28;19947;-70
2024/01/13 12:13:17;;;;;;;;;;;;;;;21.54;30.68;102025.25;5042272;28;19917;-70
2024/01/13 12:15:45;;;;;;;;;;;;;;;21.55;30.67;102032.38;5045224;28;19913;-70
2024/01/13 12:18:17;;;;;;;;;;;;;;;21.55;30.66;102016.97;5044709;28;19919;-71
2024/01/13 12:20:42;;;;;;;;;;;;;;;21.56;30.56;102013.25;5036407;28;19913;-71
2024/01/13 12:23:07;;;;;;;;;;;;;;;21.60;30.33;102008.38;5032878;28;20007;-70
2024/01/13 12:25:32;;;;;;;;;;;;;;;21.61;30.52;102004.66;5030955;28;20457;-70